x

Point Arguello, Ca (ptgc1) Weather Station

7:00am - Wed 23rd Aug 2017 All times are PDT. -7 hours from GMT.

  • Wind
    18mph, 20mph gusts
  • 空気 Temp 58°f
  • Sea Pressure 1015.8mb
  • Point Arguello, Ca
  • Point Arguello, Ca

More Historic Weather Station data

Upgrade to MSW Pro to gain access to the past 30 days of data for over 8000 Wavebouys and Weather Stations around the globe.

Join

Comparision Forecast

View Surf forecast
   
Wed 08/23 7:00am 18 20 mph 1015.8mb 58f
6:00am 20 21 mph 1015.4mb 58f
5:00am 17 18 mph 1015.4mb 58f
4:00am 21 22 mph 1015.4mb 58f
3:00am 20 21 mph 1015.5mb 58f
2:00am 23 26 mph 1015.1mb 58f
1:00am 29 31 mph 1014.9mb 60f
12:00am 29 31 mph 1015.2mb 60f
Tue 08/22 11:00pm 25 28 mph 1015.7mb 60f
10:00pm 26 28 mph 1016mb 60f
9:00pm 25 26 mph 1016.2mb 60f
8:00pm 26 28 mph 1015.9mb 60f
7:00pm 24 26 mph 1015.5mb 61f
6:00pm 23 24 mph 1015.7mb 61f
5:00pm 23 25 mph 1016mb 62f
4:00pm 21 22 mph 1016.5mb 62f
3:00pm 18 20 mph 1016.6mb 62f
2:00pm 18 21 mph 1017mb 62f
1:00pm 17 18 mph 1017.3mb 62f
12:00pm 18 20 mph 1017.7mb 62f
11:00am 14 15 mph 1017.7mb 62f
10:00am 16 17 mph 1017.6mb 62f
9:00am 16 17 mph 1017.4mb 61f
8:00am 13 13 mph 1017.3mb 61f
7:00am 9 10 mph 1017mb 60f
6:00am 8 9 mph 1016.5mb 61f
5:00am 7 8 mph 1016.1mb 61f
4:00am 7 8 mph 1015.7mb 61f
3:00am 13 14 mph 1015.5mb 64f
2:00am 15 16 mph 1015.5mb 64f
1:00am 14 15 mph 1015.9mb 64f
12:00am 15 17 mph 1015.8mb 63f
Mon 08/21 11:00pm 15 17 mph 1015.9mb 63f
10:00pm 13 14 mph 1016.2mb 63f
9:00pm 10 13 mph 1016mb 63f
8:00pm 10 11 mph 1015.8mb 64f
7:00pm 7 7 mph 1015.6mb 64f
6:00pm 5 5 mph 1015.8mb 65f
5:00pm 3 5 mph 1016mb 65f
4:00pm 7 7 mph 1016.4mb 65f
3:00pm 8 10 mph 1016.6mb 66f
2:00pm 9 14 mph 1016.7mb 66f
1:00pm 5 8 mph 1016.9mb 66f
12:00pm 8 14 mph 1017mb 66f
11:00am 7 11 mph 1017.1mb 65f
10:00am 6 10 mph 1016.8mb 64f
9:00am 6 7 mph 1016.4mb 63f
8:00am  -  1 mph 1016.2mb 62f
7:00am 5 5 mph 1015.6mb 62f
6:00am 5 6 mph 1015.1mb 62f
5:00am 3 3 mph 1014.7mb 62f
4:00am 2 3 mph 1014.8mb 62f
3:00am 1 2 mph 1014.6mb 62f
2:00am  -  1 mph 1014.7mb 62f
1:00am  -  1 mph 1014.7mb 62f
12:00am 1 2 mph 1014.7mb 62f
Sun 08/20 11:00pm 2 3 mph 1014.2mb 62f
10:00pm 2 2 mph 1014.1mb 62f
9:00pm 2 2 mph 1013.4mb 61f
8:00pm  -  0 mph 1012.9mb 62f
7:00pm 5 7 mph 1012.4mb 62f
6:00pm 7 9 mph 1012.3mb 63f
5:00pm 8 13 mph 1012.5mb 63f
4:00pm 6 10 mph 1012.9mb 63f
3:00pm 11 14 mph 1013.3mb 61f
2:00pm 15 18 mph 1013.6mb 61f
1:00pm 16 18 mph 1014mb 61f
12:00pm 18 21 mph 1014mb 60f
11:00am 14 22 mph 1014.1mb 61f
10:00am 8 13 mph 1014.1mb 61f
9:00am 9 17 mph 1013.8mb 61f
8:00am 9 11 mph 1013.8mb 60f
7:00am 10 13 mph 1013.6mb 60f
6:00am 8 15 mph 1013mb 61f
5:00am 7 14 mph 1012.9mb 61f
4:00am 6 8 mph 1013mb 61f
3:00am 3 7 mph 1013.1mb 61f
2:00am 6 8 mph 1013.5mb 61f
1:00am 5 5 mph 1013.7mb 60f
12:00am 1 1 mph 1013.8mb 60f
Sat 08/19 11:00pm 3 5 mph 1013.7mb 60f
10:00pm 2 2 mph 1013.6mb 60f
9:00pm 6 7 mph 1013.4mb 61f
8:00pm 7 8 mph 1013.3mb 61f
7:00pm 2 2 mph 1013.1mb 61f
6:00pm 2 3 mph 1013.2mb 61f
5:00pm 5 8 mph 1013.3mb 62f
4:00pm 9 14 mph 1013.7mb 61f